Time;durP1;ratioP1;P1;durP2;ratioP2;P2;SDS_P1;SDS_P2;PMS_P1;PMS_P2;Temp;Humidity;BMP_temperature;BMP_pressure;BME280_temperature;BME280_humidity;BME280_pressure;Samples;Min_cycle;Max_cycle;Signal;HPM_P1;HPM_P2
2023/09/20 00:02:58;;;;;;;9.35;8.50;;;;;;;23.14;55.50;95289.69;6235209;28;110088;-70
2023/09/20 00:06:06;;;;;;;8.53;7.83;;;;;;;23.14;55.29;95297.69;6227174;27;108854;-68
2023/09/20 00:09:10;;;;;;;8.53;7.73;;;;;;;23.14;55.85;95284.34;6236257;27;109806;-69
2023/09/20 00:12:15;;;;;;;8.10;7.40;;;;;;;23.21;55.64;95293.50;6236706;28;109411;-69
2023/09/20 00:15:18;;;;;;;7.50;6.83;;;;;;;23.20;55.19;95285.81;6238762;27;109299;-69
2023/09/20 00:18:22;;;;;;;8.53;7.83;;;;;;;23.17;55.29;95291.75;6225875;28;110574;-69
2023/09/20 00:21:25;;;;;;;5.70;5.10;;;;;;;23.14;55.92;95287.03;6232897;27;110375;-70
2023/09/20 00:24:28;;;;;;;5.47;4.97;;;;;;;23.11;55.97;95287.63;6239236;27;109044;-70
2023/09/20 00:27:34;;;;;;;5.18;4.68;;;;;;;23.11;55.99;95288.44;6237207;28;110210;-69
2023/09/20 00:30:37;;;;;;;6.20;5.60;;;;;;;23.14;55.67;95301.16;6225361;27;108926;-69
2023/09/20 00:33:41;;;;;;;6.30;5.70;;;;;;;23.15;55.72;95294.72;6235884;28;109255;-69
2023/09/20 00:36:44;;;;;;;6.00;5.45;;;;;;;23.16;55.57;95295.50;6236393;27;109566;-68
2023/09/20 00:39:48;;;;;;;5.93;5.33;;;;;;;23.16;55.97;95290.94;6229272;27;112678;-67
2023/09/20 00:42:58;;;;;;;4.90;4.50;;;;;;;23.12;55.51;95303.34;6234261;28;110176;-69
2023/09/20 00:46:01;;;;;;;5.18;4.78;;;;;;;23.13;55.21;95301.47;6236742;27;109114;-70
2023/09/20 00:49:05;;;;;;;5.30;4.80;;;;;;;23.11;55.61;95303.66;6233530;28;109130;-69
2023/09/20 00:52:10;;;;;;;7.88;7.15;;;;;;;23.16;55.20;95295.50;6232160;27;109218;-70
2023/09/20 00:55:16;;;;;;;9.30;8.40;;;;;;;23.17;55.36;95305.09;6237118;27;111367;-69
2023/09/20 00:58:21;;;;;;;8.30;7.60;;;;;;;23.13;55.32;95294.25;6234474;28;109502;-69
2023/09/20 01:01:27;;;;;;;7.72;7.03;;;;;;;23.17;55.31;95297.09;6228557;27;111689;-70
2023/09/20 01:04:30;;;;;;;8.00;7.30;;;;;;;23.15;55.24;95294.72;6225418;27;109044;-70
2023/09/20 01:07:33;;;;;;;9.13;8.27;;;;;;;23.19;55.28;95297.59;6245767;27;109489;-70
2023/09/20 01:10:37;;;;;;;7.80;7.00;;;;;;;23.18;54.77;95309.34;6236115;28;110332;-70
2023/09/20 01:13:43;;;;;;;8.03;7.33;;;;;;;23.04;55.60;95296.09;6230557;27;109743;-67
2023/09/20 01:16:46;;;;;;;11.52;10.52;;;;;;;23.02;55.62;95300.94;6229719;27;109237;-68
2023/09/20 01:19:50;;;;;;;9.82;9.02;;;;;;;23.11;54.42;95296.44;6238454;27;109478;-67
2023/09/20 01:22:56;;;;;;;10.10;9.07;;;;;;;23.15;54.50;95300.06;6239264;27;109135;-66
2023/09/20 01:26:00;;;;;;;8.90;8.00;;;;;;;23.13;54.79;95299.59;6223403;27;111004;-68
2023/09/20 01:29:03;;;;;;;8.70;7.80;;;;;;;23.15;54.61;95302.72;6235328;28;109069;-68
2023/09/20 01:32:06;;;;;;;8.50;7.70;;;;;;;23.09;55.17;95284.50;6235603;27;109052;-68
2023/09/20 01:35:10;;;;;;;8.27;7.47;;;;;;;23.04;55.31;95287.28;6240480;27;109637;-69
2023/09/20 01:38:14;;;;;;;8.80;7.90;;;;;;;23.09;54.94;95292.50;6227854;27;109309;-68
2023/09/20 01:41:19;;;;;;;9.80;9.00;;;;;;;23.04;54.76;95296.09;6232320;27;109531;-68
2023/09/20 01:44:22;;;;;;;8.60;7.80;;;;;;;22.98;55.17;95300.75;6218329;28;108964;-67
2023/09/20 01:47:26;;;;;;;10.15;9.15;;;;;;;22.88;55.12;95309.03;6230365;27;109082;-66
2023/09/20 01:50:30;;;;;;;8.90;8.10;;;;;;;22.93;54.78;95308.88;6229892;28;109080;-67
2023/09/20 01:53:35;;;;;;;9.10;8.30;;;;;;;22.97;54.95;95303.72;6235159;28;109508;-67
2023/09/20 01:56:38;;;;;;;7.82;7.13;;;;;;;23.01;54.56;95310.03;6234418;27;109450;-68
2023/09/20 01:59:41;;;;;;;7.32;6.70;;;;;;;22.91;55.15;95304.94;6220667;28;109152;-68
2023/09/20 02:02:45;;;;;;;7.50;6.57;;;;;;;22.84;55.63;95307.25;6231720;27;109254;-69
2023/09/20 02:05:50;;;;;;;7.20;6.50;;;;;;;22.77;55.76;95304.22;6235047;27;109069;-67
2023/09/20 02:08:54;;;;;;;7.50;6.90;;;;;;;22.73;55.99;95297.91;6221039;28;110347;-67
2023/09/20 02:11:58;;;;;;;6.90;6.33;;;;;;;22.79;55.78;95300.16;6224147;27;109401;-67
2023/09/20 02:15:01;;;;;;;8.10;7.37;;;;;;;22.87;55.59;95299.44;6235013;27;109392;-62
2023/09/20 02:18:05;;;;;;;8.43;7.30;;;;;;;22.75;55.83;95301.06;6234736;28;109347;-62
2023/09/20 02:21:09;;;;;;;6.72;6.13;;;;;;;22.81;55.39;95289.19;6234626;27;109133;-62
2023/09/20 02:24:14;;;;;;;7.82;7.13;;;;;;;22.84;55.25;95289.34;6215990;28;109531;-61
2023/09/20 02:27:18;;;;;;;7.78;7.13;;;;;;;22.80;55.94;95298.28;6233036;27;109068;-63
2023/09/20 02:30:24;;;;;;;7.63;6.93;;;;;;;22.86;55.35;95297.88;6234937;27;109186;-62
2023/09/20 02:33:28;;;;;;;8.80;8.00;;;;;;;22.92;55.34;95296.63;6227166;28;109128;-63
2023/09/20 02:36:31;;;;;;;8.37;7.60;;;;;;;22.99;54.96;95296.19;6232626;27;110038;-62
2023/09/20 02:39:36;;;;;;;7.00;6.30;;;;;;;22.98;55.41;95302.63;6234404;28;110202;-62
2023/09/20 02:42:44;;;;;;;6.55;5.95;;;;;;;22.97;55.16;95309.84;6218451;27;109901;-62
2023/09/20 02:45:47;;;;;;;6.20;5.70;;;;;;;23.01;54.80;95310.03;6222571;27;108895;-62
2023/09/20 02:48:50;;;;;;;7.03;6.43;;;;;;;23.02;54.93;95311.63;6234799;28;112100;-61
2023/09/20 02:51:54;;;;;;;8.00;7.10;;;;;;;22.99;55.72;95309.53;6234194;27;109255;-62
2023/09/20 02:55:00;;;;;;;9.17;7.83;;;;;;;23.01;55.33;95312.69;6233807;28;110298;-62
2023/09/20 02:58:04;;;;;;;9.10;8.30;;;;;;;23.04;55.63;95308.66;6208766;27;112409;-62
2023/09/20 03:01:09;;;;;;;10.27;9.35;;;;;;;23.00;55.83;95313.78;6235442;27;109159;-62
2023/09/20 03:04:12;;;;;;;9.50;8.70;;;;;;;22.85;56.08;95316.81;6235330;27;108867;-62
2023/09/20 03:07:15;;;;;;;9.30;8.50;;;;;;;22.85;56.19;95314.97;6227585;27;109352;-63
2023/09/20 03:10:21;;;;;;;10.10;9.20;;;;;;;22.90;55.90;95311.38;6228317;27;110078;-62
2023/09/20 03:13:26;;;;;;;9.75;8.80;;;;;;;22.96;55.34;95304.81;6228066;28;108824;-62
2023/09/20 03:16:29;;;;;;;10.65;9.75;;;;;;;23.03;55.51;95312.41;6234552;27;109251;-61
2023/09/20 03:19:33;;;;;;;10.90;10.00;;;;;;;23.07;55.32;95313.38;6222820;27;109600;-62
2023/09/20 03:22:36;;;;;;;11.15;10.25;;;;;;;23.04;55.46;95314.78;6232635;27;109300;-62
2023/09/20 03:25:42;;;;;;;11.90;10.70;;;;;;;22.95;55.42;95316.59;6233123;27;109378;-63
2023/09/20 03:28:48;;;;;;;11.50;10.40;;;;;;;22.91;55.47;95315.63;6232884;28;109250;-64
2023/09/20 03:31:51;;;;;;;12.15;11.05;;;;;;;22.78;55.75;95316.47;6217954;27;109240;-63
2023/09/20 03:34:56;;;;;;;11.23;10.23;;;;;;;22.74;56.33;95315.50;6234149;28;110088;-64
2023/09/20 03:37:59;;;;;;;11.20;10.10;;;;;;;22.79;56.24;95324.16;6235512;27;110250;-64
2023/09/20 03:41:06;;;;;;;9.57;8.68;;;;;;;22.70;55.78;95310.78;6237329;27;109132;-63
2023/09/20 03:44:12;;;;;;;9.17;8.37;;;;;;;22.74;55.91;95315.50;6225491;27;109144;-62
2023/09/20 03:47:15;;;;;;;9.27;8.37;;;;;;;22.79;55.19;95316.16;6227500;27;109181;-63
2023/09/20 03:50:18;;;;;;;10.00;9.03;;;;;;;22.91;55.40;95307.63;6237915;28;109288;-62
2023/09/20 03:53:21;;;;;;;13.80;12.70;;;;;;;22.98;55.10;95313.31;6227277;27;109008;-65
2023/09/20 03:56:26;;;;;;;10.68;9.68;;;;;;;22.96;54.82;95318.16;6243741;27;109182;-63
2023/09/20 03:59:32;;;;;;;8.20;7.40;;;;;;;22.97;54.84;95311.72;6244495;27;108809;-63
2023/09/20 04:02:35;;;;;;;7.43;6.30;;;;;;;23.08;54.38;95310.41;6237106;27;109230;-63
2023/09/20 04:05:39;;;;;;;7.80;7.00;;;;;;;23.05;54.33;95316.34;6226194;27;109251;-64
2023/09/20 04:08:50;;;;;;;8.40;7.60;;;;;;;23.00;54.10;95309.22;6232730;28;109086;-64
2023/09/20 04:11:54;;;;;;;10.77;9.33;;;;;;;22.97;54.43;95315.19;6234366;27;109104;-62
2023/09/20 04:14:57;;;;;;;13.25;12.25;;;;;;;23.02;54.36;95316.97;6237016;28;110235;-65
2023/09/20 04:18:08;;;;;;;16.02;14.63;;;;;;;23.01;54.26;95316.16;6226163;27;110936;-64
2023/09/20 04:21:11;;;;;;;11.85;10.85;;;;;;;23.04;54.05;95324.66;6236683;27;108776;-63
2023/09/20 04:24:16;;;;;;;10.60;9.70;;;;;;;23.06;53.80;95320.59;6235879;28;109318;-63
2023/09/20 04:27:21;;;;;;;10.65;9.75;;;;;;;23.08;53.53;95317.63;6231075;27;109249;-65
2023/09/20 04:30:24;;;;;;;9.77;8.60;;;;;;;23.07;53.40;95319.50;6234650;28;108876;-62
2023/09/20 04:33:27;;;;;;;10.02;9.02;;;;;;;23.13;53.30;95315.59;6236933;27;109089;-62
2023/09/20 04:36:31;;;;;;;8.95;8.00;;;;;;;23.11;52.80;95314.34;6237414;28;108978;-70
2023/09/20 04:39:34;;;;;;;8.70;7.90;;;;;;;23.15;52.88;95318.75;6224727;27;109050;-72
2023/09/20 04:42:38;;;;;;;9.73;8.82;;;;;;;23.25;53.50;95323.84;6234351;27;109077;-74
2023/09/20 04:45:41;;;;;;;7.80;6.50;;;;;;;23.29;53.78;95327.50;6236243;28;109053;-72
2023/09/20 04:48:45;;;;;;;8.10;6.60;;;;;;;23.28;53.32;95331.25;6226026;27;109177;-73
2023/09/20 04:51:48;;;;;;;6.78;6.18;;;;;;;23.20;52.40;95329.31;6225394;27;109249;-74
2023/09/20 04:54:51;;;;;;;7.40;6.60;;;;;;;23.13;52.82;95328.94;6237007;28;109507;-75
2023/09/20 04:57:56;;;;;;;6.10;5.50;;;;;;;23.16;52.82;95333.66;6237225;27;109225;-73
2023/09/20 05:00:59;;;;;;;6.53;5.30;;;;;;;23.12;52.68;95339.94;6231907;27;109087;-72
2023/09/20 05:04:06;;;;;;;5.70;4.80;;;;;;;23.10;52.04;95334.91;6209441;28;109411;-73
2023/09/20 05:07:09;;;;;;;5.72;4.78;;;;;;;23.10;52.02;95328.78;6224967;27;109102;-73
2023/09/20 05:10:13;;;;;;;5.15;4.50;;;;;;;23.11;52.08;95341.81;6214718;28;108941;-73
2023/09/20 05:13:18;;;;;;;5.65;4.50;;;;;;;23.11;51.72;95341.03;6220187;27;110762;-72
2023/09/20 05:16:22;;;;;;;5.28;4.20;;;;;;;23.07;51.34;95342.72;6236476;27;109058;-73
2023/09/20 05:19:25;;;;;;;4.85;4.30;;;;;;;22.95;51.82;95349.41;6236873;28;109416;-72
2023/09/20 05:22:30;;;;;;;4.90;4.40;;;;;;;22.91;51.60;95351.09;6248032;27;110206;-73
2023/09/20 05:25:33;;;;;;;4.68;4.28;;;;;;;22.89;51.55;95360.50;6245362;27;109762;-72
2023/09/20 05:28:38;;;;;;;5.18;4.55;;;;;;;22.74;51.83;95358.97;6236170;27;108963;-72
2023/09/20 05:31:42;;;;;;;6.60;4.82;;;;;;;22.66;52.42;95360.47;6227118;27;108863;-73
2023/09/20 05:34:46;;;;;;;7.95;5.20;;;;;;;22.57;53.24;95364.16;6236375;28;109078;-73
2023/09/20 05:37:49;;;;;;;6.47;5.80;;;;;;;22.40;53.45;95365.56;6227552;27;110449;-71
2023/09/20 05:40:52;;;;;;;7.25;5.90;;;;;;;22.20;54.58;95366.00;6236180;28;109236;-72
2023/09/20 05:43:57;;;;;;;7.30;6.60;;;;;;;22.18;54.88;95364.69;6236301;27;109227;-72
2023/09/20 05:47:00;;;;;;;9.25;7.25;;;;;;;22.14;54.90;95377.03;6226018;27;109070;-64
2023/09/20 05:50:04;;;;;;;9.60;6.80;;;;;;;22.14;55.01;95377.81;6235384;27;109326;-64
2023/09/20 05:53:11;;;;;;;9.13;7.00;;;;;;;22.02;55.80;95375.69;6235638;27;109046;-64
2023/09/20 05:56:15;;;;;;;7.07;6.38;;;;;;;22.15;55.11;95378.59;6235713;27;109215;-63
2023/09/20 05:59:19;;;;;;;8.30;7.50;;;;;;;22.34;54.73;95387.28;6224649;27;109218;-63
2023/09/20 06:02:23;;;;;;;8.68;7.88;;;;;;;22.51;54.45;95389.31;6235047;27;110216;-63
2023/09/20 06:05:26;;;;;;;9.60;8.60;;;;;;;22.63;54.31;95393.09;6235640;27;109163;-63
2023/09/20 06:08:29;;;;;;;7.88;6.97;;;;;;;22.64;54.48;95399.22;6235640;28;109019;-64
2023/09/20 06:11:32;;;;;;;10.00;8.38;;;;;;;22.65;54.04;95393.56;6224562;27;110345;-63
2023/09/20 06:14:37;;;;;;;9.57;8.40;;;;;;;22.21;55.37;95388.88;6235225;28;109051;-63
2023/09/20 06:17:42;;;;;;;9.40;8.50;;;;;;;22.02;56.02;95397.00;6235035;27;109344;-63
2023/09/20 06:20:51;;;;;;;9.50;8.60;;;;;;;21.89;56.29;95389.00;6230390;27;110003;-63
2023/09/20 06:23:54;;;;;;;10.83;8.63;;;;;;;21.57;57.28;95387.94;6229856;28;109595;-60
2023/09/20 06:26:58;;;;;;;8.60;7.20;;;;;;;21.89;56.12;95397.78;6247843;27;109777;-60
2023/09/20 06:30:07;;;;;;;8.35;7.55;;;;;;;22.19;55.09;95399.06;6260427;27;109058;-60
2023/09/20 06:33:10;;;;;;;8.77;7.32;;;;;;;22.38;54.73;95398.94;6226063;27;109717;-60
2023/09/20 06:36:17;;;;;;;8.07;7.27;;;;;;;22.49;54.73;95400.28;6235080;27;109819;-59
2023/09/20 06:39:20;;;;;;;8.20;7.50;;;;;;;22.54;54.55;95402.88;6235326;28;109070;-60
2023/09/20 06:42:24;;;;;;;8.43;7.63;;;;;;;22.61;54.02;95402.47;6250379;27;109424;-59
2023/09/20 06:45:29;;;;;;;9.40;8.60;;;;;;;22.55;54.70;95398.31;6248960;27;109248;-63
2023/09/20 06:48:32;;;;;;;15.47;14.17;;;;;;;22.67;53.86;95398.59;6259386;27;109175;-63
2023/09/20 06:51:35;;;;;;;28.10;25.50;;;;;;;22.77;54.16;95397.59;6252905;27;109123;-63
2023/09/20 06:54:41;;;;;;;21.40;19.70;;;;;;;22.85;53.90;95408.38;6230319;28;112086;-67
2023/09/20 06:57:46;;;;;;;20.50;18.70;;;;;;;22.91;54.49;95396.47;6246473;27;111620;-69
2023/09/20 07:00:51;;;;;;;17.70;16.20;;;;;;;22.95;53.91;95407.31;6258470;27;109087;-68
2023/09/20 07:03:54;;;;;;;19.80;17.90;;;;;;;23.00;54.04;95412.53;6234869;28;110373;-67
2023/09/20 07:06:58;;;;;;;16.50;15.10;;;;;;;22.99;53.77;95414.41;6234867;27;110113;-67
2023/09/20 07:10:05;;;;;;;14.90;13.60;;;;;;;22.99;53.85;95416.31;6259453;27;110013;-68
2023/09/20 07:13:09;;;;;;;12.30;11.10;;;;;;;22.89;54.56;95414.66;6259196;27;109240;-68
2023/09/20 07:16:15;;;;;;;11.13;10.13;;;;;;;22.85;54.29;95416.38;6260082;27;108753;-68
2023/09/20 07:19:22;;;;;;;11.33;10.33;;;;;;;22.87;54.63;95416.06;6248646;27;111849;-68
2023/09/20 07:22:28;;;;;;;11.15;9.98;;;;;;;22.87;54.38;95408.06;6246191;27;109196;-68
2023/09/20 07:25:35;;;;;;;11.52;10.52;;;;;;;22.86;54.34;95412.59;6230316;28;109058;-68
2023/09/20 07:28:42;;;;;;;11.27;10.30;;;;;;;22.85;54.18;95412.88;6252089;27;109243;-66
2023/09/20 07:31:47;;;;;;;11.10;10.10;;;;;;;22.98;53.80;95422.72;6252815;27;109260;-68
2023/09/20 07:34:57;;;;;;;9.90;9.00;;;;;;;23.12;53.54;95422.69;6259145;27;109255;-67
2023/09/20 07:38:02;;;;;;;10.02;9.23;;;;;;;23.24;52.90;95420.28;6259803;27;109222;-68
2023/09/20 07:41:09;;;;;;;10.30;9.40;;;;;;;23.34;52.95;95414.69;6240655;27;109184;-67
2023/09/20 07:44:15;;;;;;;11.40;10.40;;;;;;;23.44;52.88;95419.03;6217197;28;109009;-68
2023/09/20 07:47:20;;;;;;;9.23;8.53;;;;;;;23.53;52.52;95426.00;6231637;27;111760;-68
2023/09/20 07:50:25;;;;;;;10.75;9.75;;;;;;;23.54;52.74;95424.91;6259099;27;109131;-68
2023/09/20 07:53:28;;;;;;;10.38;9.57;;;;;;;23.57;52.86;95428.84;6227515;27;110003;-68
2023/09/20 07:56:32;;;;;;;12.63;11.52;;;;;;;23.57;52.89;95428.84;6237541;27;109279;-67
2023/09/20 07:59:36;;;;;;;15.30;13.90;;;;;;;23.56;52.97;95428.06;6258320;27;109364;-68
2023/09/20 08:02:47;;;;;;;14.70;13.40;;;;;;;23.55;53.06;95425.69;6243658;27;109166;-67
2023/09/20 08:05:50;;;;;;;16.13;14.73;;;;;;;23.57;52.98;95434.19;6227462;28;109042;-67
2023/09/20 08:08:56;;;;;;;15.32;13.93;;;;;;;23.58;52.87;95433.09;6232914;27;108974;-68
2023/09/20 08:12:00;;;;;;;14.27;13.18;;;;;;;23.58;53.13;95430.41;6233916;27;110152;-68
2023/09/20 08:15:04;;;;;;;14.00;12.90;;;;;;;23.65;52.80;95425.41;6223143;27;109369;-68
2023/09/20 08:21:32;;;;;;;16.38;14.98;;;;;;;23.77;52.45;95412.28;6233170;27;109049;-67
2023/09/20 09:01:44;;;;;;;14.30;13.00;;;;;;;24.18;52.68;95403.19;6225532;27;108810;-67
2023/09/20 09:04:52;;;;;;;14.10;12.80;;;;;;;24.20;52.95;95409.03;6236894;28;109002;-69
2023/09/20 09:07:57;;;;;;;12.10;11.10;;;;;;;24.16;52.64;95402.72;6236922;27;109195;-67
2023/09/20 09:11:01;;;;;;;12.10;11.10;;;;;;;24.16;52.65;95392.81;6231550;27;109409;-68
2023/09/20 09:14:05;;;;;;;11.17;10.17;;;;;;;24.16;52.62;95398.16;6230147;27;109533;-69
2023/09/20 09:17:10;;;;;;;13.38;11.98;;;;;;;24.11;52.77;95384.94;6236615;27;109294;-70
2023/09/20 09:20:16;;;;;;;11.52;10.32;;;;;;;24.14;52.64;95383.53;6236668;28;109300;-70
2023/09/20 09:23:33;;;;;;;10.93;9.93;;;;;;;24.24;52.31;95385.94;6224993;27;108984;-69
2023/09/20 09:26:36;;;;;;;11.10;10.10;;;;;;;24.41;52.38;95385.19;6236356;28;109202;-70
2023/09/20 09:29:42;;;;;;;10.23;9.23;;;;;;;24.52;52.21;95383.75;6261476;27;109325;-70
2023/09/20 09:32:47;;;;;;;12.60;11.40;;;;;;;24.59;52.26;95377.97;6262109;27;111628;-71
2023/09/20 09:35:52;;;;;;;15.30;13.93;;;;;;;24.66;51.99;95378.28;6250069;27;109050;-70
2023/09/20 09:39:10;;;;;;;14.50;13.20;;;;;;;24.74;51.78;95380.22;6260938;27;109058;-71
2023/09/20 09:42:28;;;;;;;12.80;11.70;;;;;;;24.74;51.83;95377.53;6256038;27;108892;-70
2023/09/20 09:45:32;;;;;;;12.43;11.32;;;;;;;24.75;51.51;95376.44;6229745;27;109198;-66
2023/09/20 09:48:37;;;;;;;12.10;11.00;;;;;;;24.78;51.50;95375.81;6233229;27;108977;-70
2023/09/20 09:51:45;;;;;;;12.82;11.73;;;;;;;24.85;51.80;95372.63;6235927;28;109125;-70
2023/09/20 09:54:49;;;;;;;13.00;11.90;;;;;;;24.90;52.00;95367.94;6236224;28;109113;-71
2023/09/20 09:57:53;;;;;;;12.47;11.37;;;;;;;24.95;51.68;95365.09;6224789;27;109373;-70
2023/09/20 10:00:57;;;;;;;12.60;11.40;;;;;;;24.95;51.77;95361.63;6235327;28;109324;-70
2023/09/20 10:04:05;;;;;;;11.43;10.32;;;;;;;24.90;51.79;95359.91;6235617;28;109974;-71
2023/09/20 10:07:10;;;;;;;11.87;10.67;;;;;;;24.89;51.84;95354.88;6235599;27;109263;-70
2023/09/20 10:10:16;;;;;;;11.45;10.35;;;;;;;24.90;51.66;95351.09;6224930;28;108828;-71
2023/09/20 10:13:20;;;;;;;10.80;9.80;;;;;;;24.90;51.78;95345.72;6235864;27;110210;-70
2023/09/20 10:16:24;;;;;;;10.43;9.52;;;;;;;24.88;51.63;95346.06;6235432;28;109185;-69
2023/09/20 10:19:28;;;;;;;10.57;9.65;;;;;;;24.88;51.82;95348.72;6229529;27;108983;-72
2023/09/20 10:22:34;;;;;;;11.00;9.90;;;;;;;24.87;51.68;95341.81;6234075;27;109295;-71
2023/09/20 10:25:39;;;;;;;10.67;9.67;;;;;;;24.85;51.94;95341.31;6261087;27;110040;-71
2023/09/20 10:28:44;;;;;;;10.70;9.70;;;;;;;24.84;51.54;95336.25;6260370;27;110108;-62
2023/09/20 10:31:49;;;;;;;10.30;9.30;;;;;;;24.82;51.68;95336.59;6250148;27;108830;-62
2023/09/20 10:35:22;;;;;;;10.63;9.77;;;;;;;24.82;51.58;95328.56;6237018;27;109197;-63
2023/09/20 10:38:25;;;;;;;10.05;9.25;;;;;;;24.80;51.38;95325.41;6246447;27;110114;-63
2023/09/20 10:41:41;;;;;;;10.70;9.60;;;;;;;24.78;51.68;95319.59;6230221;27;109308;-62
2023/09/20 10:44:45;;;;;;;9.90;8.90;;;;;;;24.74;51.58;95311.41;6223333;27;109424;-62
2023/09/20 10:47:49;;;;;;;9.88;8.98;;;;;;;24.72;51.90;95307.47;6234272;27;109009;-63
2023/09/20 10:50:57;;;;;;;9.57;8.75;;;;;;;24.69;51.88;95300.06;6235727;28;109935;-62
2023/09/20 10:54:03;;;;;;;9.90;9.10;;;;;;;24.68;51.86;95296.59;6223501;27;109010;-62
2023/09/20 10:57:11;;;;;;;9.32;8.52;;;;;;;24.66;51.83;95292.63;6234490;28;109220;-61
2023/09/20 11:00:22;;;;;;;9.60;8.70;;;;;;;24.64;51.93;95292.16;6259956;27;108819;-62
2023/09/20 11:03:25;;;;;;;10.13;9.13;;;;;;;24.63;52.05;95283.34;6259359;27;109102;-63
2023/09/20 11:06:28;;;;;;;9.48;8.68;;;;;;;24.62;51.98;95279.09;6248643;27;110228;-63
2023/09/20 11:09:34;;;;;;;9.80;8.80;;;;;;;24.60;52.02;95278.63;6259823;27;110142;-63
2023/09/20 11:12:43;;;;;;;8.98;8.18;;;;;;;24.57;51.82;95273.13;6259912;27;110146;-63
2023/09/20 11:15:47;;;;;;;8.93;8.23;;;;;;;24.57;51.74;95273.13;6257650;27;110003;-65
2023/09/20 11:18:50;;;;;;;8.95;8.10;;;;;;;24.56;51.87;95263.53;6240943;27;109727;-63
2023/09/20 11:21:53;;;;;;;8.90;8.10;;;;;;;24.56;51.71;95258.97;6234562;28;109177;-64
2023/09/20 11:25:00;;;;;;;8.75;7.95;;;;;;;24.54;51.60;95265.75;6255768;27;109989;-63
2023/09/20 11:28:07;;;;;;;8.70;7.90;;;;;;;24.52;51.53;95255.34;6244590;27;109240;-62
2023/09/20 11:31:23;;;;;;;9.10;8.30;;;;;;;24.48;51.55;95252.50;6233884;28;109078;-63
2023/09/20 11:34:28;;;;;;;8.93;7.72;;;;;;;24.45;51.21;95255.81;6250488;27;109215;-63
2023/09/20 11:37:32;;;;;;;8.13;7.32;;;;;;;24.46;50.76;95253.94;6259289;27;109022;-71
2023/09/20 11:40:37;;;;;;;7.88;7.10;;;;;;;24.46;50.82;95252.03;6199343;28;109077;-71
2023/09/20 11:43:42;;;;;;;7.43;6.83;;;;;;;24.46;50.99;95249.38;6218468;27;109411;-70
2023/09/20 11:46:52;;;;;;;7.40;6.70;;;;;;;24.44;50.27;95238.19;6233725;28;110303;-71
2023/09/20 11:49:58;;;;;;;7.77;7.07;;;;;;;24.44;50.01;95240.09;6229178;27;109065;-69
2023/09/20 11:53:02;;;;;;;7.30;6.60;;;;;;;24.43;50.30;95233.94;6230834;27;109031;-71
2023/09/20 11:56:05;;;;;;;7.20;6.55;;;;;;;24.43;50.13;95230.50;6259003;27;109174;-70
2023/09/20 11:59:11;;;;;;;7.60;6.80;;;;;;;24.39;49.92;95225.00;6260100;27;109232;-70
2023/09/20 12:02:14;;;;;;;6.93;6.25;;;;;;;24.38;49.30;95217.28;6253426;27;109850;-70
2023/09/20 12:05:18;;;;;;;6.87;6.17;;;;;;;24.39;49.02;95218.84;6241216;27;109200;-69
2023/09/20 12:08:22;;;;;;;6.88;5.88;;;;;;;24.38;48.97;95220.75;6237860;27;109181;-71
2023/09/20 12:11:26;;;;;;;6.50;5.90;;;;;;;24.38;49.04;95218.06;6237427;28;108831;-71
2023/09/20 12:14:32;;;;;;;6.40;5.80;;;;;;;24.40;49.12;95210.50;6228183;27;110063;-70
2023/09/20 12:17:35;;;;;;;6.10;5.50;;;;;;;24.39;49.02;95216.19;6237594;28;109089;-70
2023/09/20 12:20:39;;;;;;;6.07;5.57;;;;;;;24.38;49.22;95218.06;6237572;27;109175;-70
2023/09/20 12:23:42;;;;;;;6.00;5.50;;;;;;;24.38;49.20;95212.72;6244607;27;109335;-70
2023/09/20 12:26:46;;;;;;;6.00;5.40;;;;;;;24.39;49.23;95213.50;6251373;27;109024;-70
2023/09/20 12:29:50;;;;;;;5.90;5.35;;;;;;;24.37;49.38;95208.47;6246571;27;109002;-70
2023/09/20 12:32:54;;;;;;;6.30;5.70;;;;;;;24.38;49.36;95204.69;6237222;28;109420;-70
2023/09/20 12:35:59;;;;;;;6.07;5.47;;;;;;;24.37;49.27;95208.47;6230078;27;109308;-70
2023/09/20 12:39:04;;;;;;;5.80;5.30;;;;;;;24.37;49.55;95205.81;6244313;27;108999;-70
2023/09/20 12:42:07;;;;;;;5.77;5.17;;;;;;;24.34;49.67;95195.72;6221728;27;109372;-70
2023/09/20 12:45:14;;;;;;;6.10;5.30;;;;;;;24.37;49.72;95195.09;6223182;27;110135;-71
2023/09/20 12:48:19;;;;;;;5.85;5.25;;;;;;;24.37;49.36;95194.31;6222898;27;109072;-71
2023/09/20 12:51:22;;;;;;;5.90;5.30;;;;;;;24.38;49.57;95196.66;6236911;28;109132;-70
2023/09/20 12:54:25;;;;;;;6.07;5.30;;;;;;;24.42;49.41;95186.91;6224459;27;108856;-70
2023/09/20 12:57:29;;;;;;;6.10;5.50;;;;;;;24.43;49.01;95187.69;6236923;28;109275;-71
2023/09/20 13:00:34;;;;;;;6.50;5.30;;;;;;;24.44;49.31;95184.69;6226746;27;110049;-70
2023/09/20 13:03:48;;;;;;;5.75;4.97;;;;;;;24.45;49.26;95180.91;6236734;27;108986;-70
2023/09/20 13:06:52;;;;;;;5.30;4.80;;;;;;;24.45;48.67;95172.88;6236747;28;109004;-70
2023/09/20 13:09:56;;;;;;;5.80;5.20;;;;;;;24.46;49.07;95171.78;6230405;27;109081;-70
2023/09/20 13:12:59;;;;;;;5.88;5.28;;;;;;;24.46;48.83;95171.78;6231644;28;109033;-71
2023/09/20 13:16:05;;;;;;;5.80;5.20;;;;;;;24.47;48.77;95169.91;6253323;27;109298;-71
2023/09/20 13:19:09;;;;;;;5.70;5.10;;;;;;;24.47;48.79;95164.53;6219073;27;109285;-70
2023/09/20 13:22:12;;;;;;;5.50;5.00;;;;;;;24.47;48.81;95165.31;6224849;27;109259;-71
2023/09/20 13:25:19;;;;;;;5.10;4.60;;;;;;;24.46;48.86;95158.41;6253325;27;109200;-70
2023/09/20 13:28:22;;;;;;;5.50;5.00;;;;;;;24.48;48.67;95152.75;6261168;27;109165;-70
2023/09/20 13:31:26;;;;;;;6.03;4.80;;;;;;;24.44;48.21;95144.56;6261498;27;108884;-70
2023/09/20 13:34:29;;;;;;;5.07;4.45;;;;;;;24.45;48.06;95143.47;6250215;27;110695;-70
2023/09/20 13:37:33;;;;;;;5.47;4.78;;;;;;;24.48;48.25;95142.81;6256268;27;109231;-72
2023/09/20 13:40:38;;;;;;;5.40;4.60;;;;;;;24.47;48.15;95141.25;6214537;27;109362;-71
2023/09/20 13:43:42;;;;;;;5.57;4.53;;;;;;;24.45;48.59;95138.09;6208868;27;110207;-70
2023/09/20 13:46:47;;;;;;;4.90;4.40;;;;;;;24.47;48.64;95129.75;6230556;28;109069;-70
2023/09/20 13:49:52;;;;;;;5.10;4.60;;;;;;;24.44;48.17;95131.19;6247733;27;109196;-69
2023/09/20 13:52:57;;;;;;;4.82;4.22;;;;;;;24.42;48.82;95128.06;6247974;27;109133;-69
2023/09/20 13:56:03;;;;;;;4.95;4.30;;;;;;;24.40;48.87;95130.25;6211000;27;109221;-70
2023/09/20 13:59:06;;;;;;;4.85;4.32;;;;;;;24.42;49.10;95132.63;6229451;27;109234;-68
2023/09/20 14:02:14;;;;;;;4.60;4.20;;;;;;;24.41;48.97;95131.03;6260803;27;108878;-68
2023/09/20 14:05:18;;;;;;;5.90;4.30;;;;;;;24.41;48.99;95137.19;6260311;27;109089;-67
2023/09/20 14:08:21;;;;;;;6.95;4.30;;;;;;;24.41;48.32;95131.84;6250183;27;109975;-66
2023/09/20 14:11:26;;;;;;;5.85;3.90;;;;;;;24.36;48.45;95118.63;6236536;27;109160;-66
2023/09/20 14:14:30;;;;;;;5.22;3.80;;;;;;;24.39;48.36;95126.03;6235759;27;108897;-67
2023/09/20 14:17:34;;;;;;;5.82;4.03;;;;;;;24.49;47.41;95122.19;6233200;28;109868;-66
2023/09/20 14:20:40;;;;;;;4.72;3.90;;;;;;;24.54;47.46;95118.59;6229418;27;109291;-67
2023/09/20 14:23:43;;;;;;;4.88;3.83;;;;;;;24.55;47.26;95120.16;6236020;27;109097;-66
2023/09/20 14:26:47;;;;;;;9.93;4.40;;;;;;;24.58;46.69;95117.63;6260712;27;109291;-67
2023/09/20 14:29:51;;;;;;;6.57;3.60;;;;;;;24.55;46.72;95120.16;6248892;27;109026;-67
2023/09/20 14:32:55;;;;;;;7.78;4.00;;;;;;;24.48;47.79;95117.97;6259941;27;109092;-69
2023/09/20 14:35:59;;;;;;;5.30;3.60;;;;;;;24.43;46.89;95118.91;6240863;27;109361;-68
2023/09/20 14:39:02;;;;;;;7.32;3.97;;;;;;;24.44;47.03;95120.50;6232122;28;109002;-69
2023/09/20 14:42:08;;;;;;;8.15;3.50;;;;;;;24.44;46.46;95115.13;6224934;28;111244;-69
2023/09/20 14:45:14;;;;;;;6.82;3.70;;;;;;;24.43;46.60;95116.25;6246408;27;109086;-69
2023/09/20 14:48:19;;;;;;;6.50;3.90;;;;;;;24.46;46.87;95120.16;6260115;27;109039;-70
2023/09/20 14:51:22;;;;;;;7.63;3.73;;;;;;;24.43;46.55;95123.50;6260372;27;110102;-69
2023/09/20 14:54:25;;;;;;;4.67;3.40;;;;;;;24.39;46.15;95122.56;6229813;27;110349;-68
2023/09/20 14:57:30;;;;;;;7.77;3.73;;;;;;;24.37;45.43;95122.88;6260079;27;109026;-68